This is the latest recevied weather packets stored in our database for station/object YD2CLX-18. If no packets are shown the sender has not sent any weather packets the latest 1 day(s).
| Time | Temp. | Humidity | Pressure | Rain* | Wind** | Luminosity | Snow |
|---|---|---|---|---|---|---|---|
| 1778091330 | 30° C | 86% | 1010 hPa | 0 mm | - | - | - |
| 1778090430 | 30° C | 86% | 1010 hPa | 0 mm | - | - | - |
| 1778089530 | 30° C | 86% | 1010 hPa | 0 mm | - | - | - |
| 1778087730 | 30.56° C | 85% | 1010 hPa | 0 mm | - | - | - |
| 1778084130 | 30.56° C | 85% | 1010 hPa | 0 mm | - | - | - |
| 1778082330 | 30.56° C | 85% | 1010 hPa | 0 mm | - | - | - |
| 1778081430 | 30.56° C | 86% | 1010 hPa | 0 mm | - | - | - |
| 1778077830 | 30.56° C | 85% | 1010 hPa | 0 mm | - | - | - |
| 1778072430 | 31.67° C | 83% | 1010 hPa | 0 mm | - | - | - |
| 1778068831 | 31.11° C | 81% | 1009 hPa | 0 mm | - | - | - |
| 1778067030 | 31.11° C | 81% | 1009 hPa | 0 mm | - | - | - |
| 1778064329 | 31.67° C | 79% | 1008 hPa | 0 mm | - | - | - |
| 1778063429 | 31.67° C | 80% | 1008 hPa | 0 mm | - | - | - |
| 1778062529 | 32.22° C | 76% | 1007 hPa | 0 mm | - | - | - |
| 1778059829 | 32.22° C | 78% | 1007 hPa | 0 mm | - | - | - |
| 1778044504 | 33.33° C | 75% | 1009 hPa | 0 mm | - | - | - |
| 1778036407 | 32.78° C | 76% | 1010 hPa | 0 mm | - | - | - |
| 1778034606 | 32.22° C | 77% | 1010 hPa | 0 mm | - | - | - |
| 1778032806 | 32.22° C | 79% | 1011 hPa | 0 mm | - | - | - |
| 1778031906 | 31.67° C | 80% | 1011 hPa | 0 mm | - | - | - |
| 1778028305 | 31.11° C | 83% | 1011 hPa | 0 mm | - | - | - |
| 1778022905 | 29.44° C | 88% | 1009 hPa | 0 mm | - | - | - |
| 1778008505 | 29.44° C | 88% | 1009 hPa | 0 mm | - | - | - |
* Rain latest hour (hover to see other rain measurements)
** Current wind speed in m/s (hover to see current wind gust speed)